Time;durP1;ratioP1;P1;durP2;ratioP2;P2;SDS_P1;SDS_P2;PMS_P1;PMS_P2;Temp;Humidity;BMP_temperature;BMP_pressure;BME280_temperature;BME280_humidity;BME280_pressure;Samples;Min_cycle;Max_cycle;Signal;HPM_P1;HPM_P2
2022/01/12 00:00:18;;;;;;;19.90;9.50;;;;;1.30;102897.00;;;;5025957;28;20244;-71
2022/01/12 00:03:05;;;;;;;18.50;9.43;;;;;1.30;102886.00;;;;5016520;28;20489;-70
2022/01/12 00:05:52;;;;;;;19.83;10.00;;;;;1.40;102899.00;;;;5018678;28;20249;-71
2022/01/12 00:08:39;;;;;;;20.90;10.40;;;;;1.30;102857.00;;;;5025460;28;20229;-70
2022/01/12 00:11:27;;;;;;;18.07;9.70;;;;;1.40;102895.00;;;;5025547;28;20295;-70
2022/01/12 00:14:13;;;;;;;15.83;8.47;;;;;1.40;102902.00;;;;5025630;28;20229;-70
2022/01/12 00:17:00;;;;;;;15.23;8.60;;;;;1.40;102910.00;;;;5019946;28;20720;-69
2022/01/12 00:19:46;;;;;;;18.10;9.70;;;;;1.40;102912.00;;;;5017605;28;20236;-70
2022/01/12 00:22:33;;;;;;;18.37;9.90;;;;;1.40;102898.00;;;;5025388;28;20229;-70
2022/01/12 00:25:27;;;;;;;18.93;9.97;;;;;1.20;102902.00;;;;5025729;28;20610;-71
2022/01/12 00:34:23;;;;;;;18.43;9.80;;;;;1.30;102919.00;;;;5024719;28;20923;-71
2022/01/12 00:37:09;;;;;;;18.43;9.40;;;;;1.40;102925.00;;;;5025451;28;20233;-72
2022/01/12 00:39:58;;;;;;;18.10;10.20;;;;;1.40;102916.00;;;;5018878;28;20688;-72
2022/01/12 00:42:44;;;;;;;17.63;9.73;;;;;1.40;102886.00;;;;5020782;28;20222;-71
2022/01/12 00:45:32;;;;;;;17.13;9.90;;;;;1.40;102900.00;;;;5023936;28;20228;-69
2022/01/12 00:48:19;;;;;;;20.47;9.93;;;;;1.40;102870.00;;;;5025410;28;20303;-71
2022/01/12 00:51:06;;;;;;;18.17;9.63;;;;;1.30;102920.00;;;;5025020;28;20233;-69
2022/01/12 00:53:52;;;;;;;23.63;10.40;;;;;1.40;102928.00;;;;5025482;28;20230;-71
2022/01/12 00:56:39;;;;;;;17.20;9.70;;;;;1.30;102926.00;;;;5023238;28;20232;-71
2022/01/12 00:59:25;;;;;;;17.93;9.40;;;;;1.30;102936.00;;;;5031178;28;20237;-70
2022/01/12 01:02:15;;;;;;;17.23;9.30;;;;;1.30;102942.00;;;;5029054;28;20232;-71
2022/01/12 01:05:02;;;;;;;15.80;8.97;;;;;1.30;102932.00;;;;5019165;28;20261;-71
2022/01/12 01:07:49;;;;;;;15.93;9.20;;;;;1.40;102941.00;;;;5025350;28;20240;-71
2022/01/12 01:10:45;;;;;;;22.57;10.77;;;;;1.40;102946.00;;;;5027133;28;20581;-71
2022/01/12 01:13:36;;;;;;;16.47;8.97;;;;;1.40;102941.00;;;;5029274;28;20229;-69
2022/01/12 01:16:28;;;;;;;18.17;9.50;;;;;1.40;102941.00;;;;5026028;28;20233;-73
2022/01/12 01:25:31;;;;;;;16.37;8.73;;;;;1.50;102946.00;;;;5028764;28;20977;-74
2022/01/12 01:28:18;;;;;;;18.50;10.27;;;;;1.50;102958.00;;;;5013405;28;20229;-70
2022/01/12 01:31:05;;;;;;;16.83;10.00;;;;;1.50;102957.00;;;;5024616;28;20364;-72
2022/01/12 01:33:51;;;;;;;20.10;10.40;;;;;1.50;102960.00;;;;5023356;28;20233;-73
2022/01/12 01:36:43;;;;;;;24.17;11.70;;;;;1.50;102973.00;;;;5016107;28;20229;-73
2022/01/12 01:39:29;;;;;;;22.83;11.97;;;;;1.60;102970.00;;;;4993618;28;24159;-71
2022/01/12 01:42:19;;;;;;;22.53;11.90;;;;;1.60;102971.00;;;;4995309;28;20277;-73
2022/01/12 01:54:20;;;;;;;23.23;11.73;;;;;1.60;102989.00;;;;4999778;28;20240;-71
2022/01/12 01:57:06;;;;;;;23.60;11.30;;;;;1.70;102973.00;;;;4996634;28;20278;-72
2022/01/12 01:59:53;;;;;;;19.63;10.67;;;;;1.70;102977.00;;;;5005672;28;20251;-74
2022/01/12 02:02:39;;;;;;;21.07;9.97;;;;;1.80;102959.00;;;;5008136;28;20229;-72
2022/01/12 02:05:26;;;;;;;17.03;8.57;;;;;1.90;102949.00;;;;5007668;28;20230;-70
2022/01/12 02:08:13;;;;;;;16.77;9.03;;;;;2.00;102939.00;;;;5007297;28;20234;-71
2022/01/12 02:11:01;;;;;;;15.67;9.13;;;;;1.90;102929.00;;;;5004989;28;20241;-71
2022/01/12 02:13:47;;;;;;;17.03;8.80;;;;;1.90;102933.00;;;;5003597;28;20235;-70
2022/01/12 02:16:48;;;;;;;16.90;8.50;;;;;1.80;102929.00;;;;5008212;28;20230;-71
2022/01/12 02:19:50;;;;;;;14.40;7.83;;;;;1.90;102942.00;;;;5014585;28;20230;-73
2022/01/12 02:35:20;;;;;;;14.97;7.77;;;;;1.50;102960.00;;;;4961947;28;20233;-71
2022/01/12 02:41:12;;;;;;;14.17;7.20;;;;;1.50;102960.00;;;;4995480;28;20293;-71
2022/01/12 02:56:20;;;;;;;10.83;7.23;;;;;1.70;102965.00;;;;5005316;28;20234;-71
2022/01/12 02:59:09;;;;;;;13.27;7.80;;;;;1.60;102973.00;;;;5006921;28;20246;-70
2022/01/12 03:02:19;;;;;;;15.73;8.10;;;;;1.60;102988.00;;;;5000256;28;20296;-71
2022/01/12 03:05:30;;;;;;;12.60;7.60;;;;;1.60;102981.00;;;;5005104;28;20358;-74
2022/01/12 03:08:20;;;;;;;14.40;8.10;;;;;1.60;102992.00;;;;4997071;28;20631;-72
2022/01/12 03:11:07;;;;;;;13.63;7.53;;;;;1.60;102994.00;;;;4991505;28;20229;-73
2022/01/12 03:13:54;;;;;;;18.40;8.33;;;;;1.60;102993.00;;;;4995313;28;20604;-71
2022/01/12 03:16:42;;;;;;;15.00;7.80;;;;;1.50;102987.00;;;;4997540;28;20237;-72
2022/01/12 03:19:28;;;;;;;13.27;7.53;;;;;1.60;102975.00;;;;5000124;28;20237;-71
2022/01/12 03:22:15;;;;;;;17.03;8.30;;;;;1.80;102980.00;;;;4994053;28;20713;-72
2022/01/12 03:25:03;;;;;;;11.83;7.37;;;;;1.70;102940.00;;;;4991666;28;20234;-71
2022/01/12 03:27:50;;;;;;;13.47;7.70;;;;;1.90;102988.00;;;;5012958;28;20230;-72
2022/01/12 03:30:47;;;;;;;12.20;7.20;;;;;1.80;102983.00;;;;5002271;28;20246;-71
2022/01/12 03:33:53;;;;;;;12.53;7.60;;;;;1.80;102991.00;;;;4999852;28;20226;-71
2022/01/12 03:36:53;;;;;;;13.43;7.27;;;;;1.90;102994.00;;;;5021765;28;20649;-70
2022/01/12 03:39:39;;;;;;;12.63;7.47;;;;;1.90;102980.00;;;;5025190;28;20238;-72
2022/01/12 03:42:27;;;;;;;11.97;7.00;;;;;2.10;102996.00;;;;5021001;28;20220;-71
2022/01/12 03:45:15;;;;;;;12.47;7.53;;;;;2.10;102987.00;;;;5014325;28;20237;-71
2022/01/12 03:48:01;;;;;;;12.93;7.10;;;;;2.00;102984.00;;;;5026228;28;20229;-71
2022/01/12 03:50:48;;;;;;;10.50;6.80;;;;;1.90;103001.00;;;;5021635;28;20295;-72
2022/01/12 03:53:35;;;;;;;12.83;7.00;;;;;1.90;103005.00;;;;5023717;28;20284;-71
2022/01/12 03:56:21;;;;;;;14.77;7.07;;;;;2.00;102994.00;;;;5015418;28;20361;-67
2022/01/12 03:59:09;;;;;;;11.57;7.07;;;;;1.90;102996.00;;;;5025866;28;20372;-70
2022/01/12 04:01:56;;;;;;;12.00;6.50;;;;;1.90;102993.00;;;;5019446;28;20241;-70
2022/01/12 04:05:06;;;;;;;15.73;7.43;;;;;1.90;103007.00;;;;5026222;28;20225;-71
2022/01/12 04:10:57;;;;;;;13.17;7.17;;;;;2.00;103004.00;;;;5013330;28;20279;-71
2022/01/12 04:13:47;;;;;;;14.17;7.67;;;;;2.00;102988.00;;;;5018074;28;20317;-70
2022/01/12 04:16:35;;;;;;;14.03;6.87;;;;;2.00;102980.00;;;;5026227;28;20233;-70
2022/01/12 04:19:23;;;;;;;13.50;7.33;;;;;2.00;102936.00;;;;5025795;28;20323;-70
2022/01/12 04:23:16;;;;;;;12.27;7.60;;;;;2.10;102981.00;;;;5021105;28;20353;-70
2022/01/12 04:25:25;;;;;;;14.20;7.40;;;;;2.00;102992.00;;;;5023078;28;20233;-71
2022/01/12 04:28:12;;;;;;;13.70;7.20;;;;;2.00;103001.00;;;;5025856;28;20361;-71
2022/01/12 04:30:58;;;;;;;13.77;7.20;;;;;2.10;102998.00;;;;5019661;28;20229;-71
2022/01/12 04:33:47;;;;;;;15.67;7.90;;;;;2.20;103011.00;;;;5029208;28;20668;-71
2022/01/12 04:36:33;;;;;;;13.77;7.90;;;;;2.10;103000.00;;;;5029607;28;20229;-71
2022/01/12 04:39:20;;;;;;;15.13;7.30;;;;;2.00;103006.00;;;;5029612;28;20933;-72
2022/01/12 04:42:06;;;;;;;14.17;7.87;;;;;2.10;103013.00;;;;5029120;28;20232;-71
2022/01/12 04:45:00;;;;;;;16.00;8.13;;;;;2.10;103022.00;;;;5018114;28;20648;-71
2022/01/12 04:47:59;;;;;;;14.97;8.80;;;;;2.20;103029.00;;;;5021734;28;20364;-71
2022/01/12 04:50:49;;;;;;;16.73;8.70;;;;;2.20;103025.00;;;;5028107;28;20874;-70
2022/01/12 04:53:36;;;;;;;16.90;8.90;;;;;2.20;103033.00;;;;5029124;28;20232;-71
2022/01/12 04:56:23;;;;;;;16.50;8.07;;;;;2.20;103028.00;;;;5028779;28;20228;-72
2022/01/12 04:59:10;;;;;;;15.77;8.10;;;;;2.20;103028.00;;;;5022630;28;20318;-71
2022/01/12 05:02:09;;;;;;;17.70;7.73;;;;;2.20;103034.00;;;;5022636;28;20291;-70
2022/01/12 05:08:13;;;;;;;17.00;8.50;;;;;2.10;103031.00;;;;5017149;28;20293;-71
2022/01/12 05:14:04;;;;;;;15.23;7.67;;;;;2.20;103010.00;;;;5010819;28;20237;-70
2022/01/12 05:16:51;;;;;;;14.97;8.43;;;;;2.20;102994.00;;;;5006271;28;20235;-71
2022/01/12 05:19:37;;;;;;;16.37;8.90;;;;;2.30;102985.00;;;;5008529;28;20314;-72
2022/01/12 05:22:24;;;;;;;15.73;8.67;;;;;2.20;103017.00;;;;5007730;28;20910;-70
2022/01/12 05:25:12;;;;;;;15.37;8.57;;;;;2.20;103024.00;;;;5037669;28;20320;-73
2022/01/12 05:27:58;;;;;;;15.97;8.23;;;;;2.20;103029.00;;;;5023378;28;20329;-73
2022/01/12 05:30:46;;;;;;;14.43;7.60;;;;;2.10;103026.00;;;;5034199;28;20733;-71
2022/01/12 05:33:33;;;;;;;10.57;6.87;;;;;2.10;103035.00;;;;5028953;28;20807;-72
2022/01/12 05:36:20;;;;;;;14.03;7.47;;;;;2.00;103028.00;;;;5028461;28;20233;-71
2022/01/12 05:39:06;;;;;;;18.97;9.10;;;;;2.10;103020.00;;;;5028955;28;20233;-71
2022/01/12 05:41:54;;;;;;;18.90;9.90;;;;;2.10;103021.00;;;;5028666;28;20249;-70
2022/01/12 05:44:42;;;;;;;16.60;9.03;;;;;2.20;103024.00;;;;5025096;28;20221;-71
2022/01/12 05:47:39;;;;;;;19.90;9.67;;;;;2.20;103025.00;;;;5026324;28;20229;-71
2022/01/12 05:50:27;;;;;;;17.17;8.80;;;;;2.20;103023.00;;;;5036975;28;20239;-70
2022/01/12 05:53:13;;;;;;;19.07;9.00;;;;;2.10;103034.00;;;;5023717;28;20326;-70
2022/01/12 05:56:00;;;;;;;21.93;10.43;;;;;2.30;103030.00;;;;5022372;28;20275;-74
2022/01/12 05:58:49;;;;;;;21.90;10.27;;;;;2.30;103000.00;;;;5021211;28;20221;-72
2022/01/12 06:01:36;;;;;;;18.77;9.60;;;;;2.20;103041.00;;;;5026273;28;20302;-73
2022/01/12 06:04:23;;;;;;;18.10;9.20;;;;;2.20;103045.00;;;;5015156;28;20229;-72
2022/01/12 06:07:10;;;;;;;20.30;10.07;;;;;2.40;103046.00;;;;5027054;28;20229;-72
2022/01/12 06:09:56;;;;;;;19.90;10.23;;;;;2.30;103044.00;;;;5027992;28;20245;-70
2022/01/12 06:12:43;;;;;;;17.50;9.83;;;;;2.30;103045.00;;;;5027164;28;20233;-71
2022/01/12 06:15:30;;;;;;;19.13;10.43;;;;;2.50;103047.00;;;;5028015;28;20612;-70
2022/01/12 06:18:17;;;;;;;19.13;10.00;;;;;2.40;103039.00;;;;5024711;28;20235;-70
2022/01/12 06:21:03;;;;;;;19.40;9.40;;;;;2.20;103046.00;;;;5027376;28;20608;-70
2022/01/12 06:23:49;;;;;;;23.87;9.70;;;;;2.40;103048.00;;;;5027941;28;20312;-71
2022/01/12 06:26:37;;;;;;;22.23;10.70;;;;;2.40;103049.00;;;;5031945;28;20228;-72
2022/01/12 06:29:28;;;;;;;19.27;9.87;;;;;2.40;103052.00;;;;5028351;28;20265;-69
2022/01/12 06:32:16;;;;;;;20.37;10.17;;;;;2.20;103046.00;;;;5044627;28;20478;-74
2022/01/12 06:35:02;;;;;;;19.47;9.93;;;;;2.40;103057.00;;;;5049478;28;20221;-75
2022/01/12 06:37:49;;;;;;;17.07;9.70;;;;;2.30;103061.00;;;;5047179;28;20291;-73
2022/01/12 06:40:36;;;;;;;20.13;10.40;;;;;2.30;103058.00;;;;5051369;28;20245;-72
2022/01/12 06:43:22;;;;;;;18.87;9.87;;;;;2.20;103064.00;;;;5055815;28;20232;-74
2022/01/12 06:46:09;;;;;;;24.20;11.37;;;;;2.40;103066.00;;;;5056704;28;20233;-74
2022/01/12 06:48:57;;;;;;;21.20;10.13;;;;;2.40;103073.00;;;;5054197;28;20221;-73
2022/01/12 06:51:43;;;;;;;21.13;10.07;;;;;2.30;103068.00;;;;5048128;28;20233;-74
2022/01/12 06:54:30;;;;;;;21.80;10.03;;;;;2.30;103062.00;;;;5054118;28;20213;-75
2022/01/12 06:57:17;;;;;;;24.00;11.20;;;;;2.40;103076.00;;;;5028517;28;20721;-72
2022/01/12 07:00:06;;;;;;;24.70;10.63;;;;;2.40;103083.00;;;;5029934;28;20280;-71
2022/01/12 07:02:52;;;;;;;23.63;12.03;;;;;2.40;103094.00;;;;5034117;28;20228;-71
2022/01/12 07:05:40;;;;;;;21.67;11.00;;;;;2.30;103110.00;;;;5024205;28;20233;-71
2022/01/12 07:08:26;;;;;;;20.50;11.37;;;;;2.30;103117.00;;;;5009523;28;20301;-71
2022/01/12 07:11:13;;;;;;;19.27;11.00;;;;;2.30;103127.00;;;;5024799;28;20342;-72
2022/01/12 07:13:59;;;;;;;22.10;10.60;;;;;2.30;103134.00;;;;5022314;28;20229;-71
2022/01/12 07:16:46;;;;;;;18.57;10.03;;;;;2.20;103143.00;;;;5020390;28;20718;-72
2022/01/12 07:19:32;;;;;;;18.50;9.23;;;;;2.30;103146.00;;;;5014867;28;20274;-72
2022/01/12 07:22:20;;;;;;;24.23;10.23;;;;;2.20;103146.00;;;;5016789;28;20242;-70
2022/01/12 07:25:07;;;;;;;21.67;10.47;;;;;2.30;103153.00;;;;5021395;28;20232;-74
2022/01/12 07:27:53;;;;;;;21.73;10.43;;;;;2.40;103160.00;;;;5013985;28;20316;-72
2022/01/12 07:30:40;;;;;;;20.90;10.03;;;;;2.30;103160.00;;;;5009220;28;20909;-71
2022/01/12 07:33:29;;;;;;;20.43;10.73;;;;;2.30;103167.00;;;;5016484;28;20225;-71
2022/01/12 07:36:16;;;;;;;22.90;11.73;;;;;2.40;103158.00;;;;5023846;28;20356;-73
2022/01/12 07:39:04;;;;;;;24.73;12.60;;;;;2.40;103178.00;;;;5026243;28;20233;-71
2022/01/12 07:41:50;;;;;;;29.33;12.67;;;;;2.50;103163.00;;;;5025194;28;20233;-73
2022/01/12 07:44:36;;;;;;;29.10;13.13;;;;;2.50;103168.00;;;;5023539;28;20806;-74
2022/01/12 07:47:22;;;;;;;33.53;14.43;;;;;2.50;103164.00;;;;5021636;28;20228;-72
2022/01/12 07:50:10;;;;;;;36.63;15.93;;;;;2.50;103175.00;;;;5025068;28;20272;-72
2022/01/12 07:52:56;;;;;;;32.93;13.67;;;;;2.50;103173.00;;;;5019601;28;20239;-71
2022/01/12 07:55:44;;;;;;;31.83;13.67;;;;;2.50;103161.00;;;;5025351;28;20600;-72
2022/01/12 07:58:31;;;;;;;28.30;13.47;;;;;2.50;103179.00;;;;5021154;28;20301;-73
2022/01/12 08:01:17;;;;;;;27.07;13.30;;;;;2.50;103172.00;;;;5021999;28;20916;-71
2022/01/12 08:04:04;;;;;;;32.00;14.53;;;;;2.60;103169.00;;;;5016955;28;20594;-71
2022/01/12 08:06:50;;;;;;;37.83;15.43;;;;;2.60;103178.00;;;;5014423;28;20245;-71
2022/01/12 08:09:37;;;;;;;42.10;15.37;;;;;2.60;103179.00;;;;5025404;28;20265;-71
2022/01/12 08:12:25;;;;;;;37.83;15.13;;;;;2.60;103185.00;;;;5024969;28;20224;-72
2022/01/12 08:15:12;;;;;;;37.60;14.63;;;;;2.70;103178.00;;;;5025679;28;20253;-71
2022/01/12 08:17:59;;;;;;;33.70;15.00;;;;;2.70;103188.00;;;;5022588;28;20701;-71
2022/01/12 08:20:46;;;;;;;42.10;15.93;;;;;2.90;103189.00;;;;5014761;28;20241;-71
2022/01/12 08:23:32;;;;;;;34.10;13.73;;;;;2.70;103192.00;;;;5022211;28;20246;-70
2022/01/12 08:26:24;;;;;;;42.03;16.27;;;;;2.70;103207.00;;;;5017912;28;20701;-70
2022/01/12 08:29:14;;;;;;;35.47;14.57;;;;;2.70;103214.00;;;;5033328;28;20315;-72
2022/01/12 08:32:00;;;;;;;40.77;16.13;;;;;2.80;103213.00;;;;5021202;28;20355;-71
2022/01/12 08:34:47;;;;;;;46.93;17.03;;;;;2.80;103221.00;;;;5028657;28;20304;-71
2022/01/12 08:37:33;;;;;;;36.13;15.00;;;;;2.80;103215.00;;;;5023474;28;20732;-72
2022/01/12 08:40:20;;;;;;;51.77;16.03;;;;;2.80;103178.00;;;;5022282;28;20234;-72
2022/01/12 08:43:06;;;;;;;33.40;15.73;;;;;2.80;103223.00;;;;5024870;28;20232;-73
2022/01/12 08:45:54;;;;;;;45.13;15.33;;;;;2.80;103227.00;;;;5019146;28;20274;-72
2022/01/12 08:48:40;;;;;;;35.20;13.73;;;;;2.80;103238.00;;;;5024895;28;20291;-72
2022/01/12 08:51:26;;;;;;;39.77;15.60;;;;;2.90;103247.00;;;;5025381;28;20631;-68
2022/01/12 08:54:13;;;;;;;43.80;17.07;;;;;2.80;103251.00;;;;5021531;28;20348;-71
2022/01/12 08:56:59;;;;;;;43.37;16.27;;;;;2.90;103239.00;;;;5012983;28;20253;-72
2022/01/12 08:59:46;;;;;;;36.03;15.27;;;;;2.80;103258.00;;;;5025227;28;20241;-71
2022/01/12 09:02:34;;;;;;;45.27;16.37;;;;;2.90;103252.00;;;;5021439;28;20341;-74
2022/01/12 09:05:20;;;;;;;52.30;15.67;;;;;2.90;103259.00;;;;5025100;28;20233;-72
2022/01/12 09:08:08;;;;;;;40.70;16.40;;;;;2.90;103260.00;;;;5018435;28;20305;-73
2022/01/12 09:10:54;;;;;;;45.53;16.27;;;;;2.90;103258.00;;;;5018216;28;20233;-72
2022/01/12 09:13:40;;;;;;;44.37;16.40;;;;;2.80;103263.00;;;;5025348;28;20249;-71
2022/01/12 09:16:27;;;;;;;41.87;16.73;;;;;3.00;103261.00;;;;5024999;28;20237;-71
2022/01/12 09:19:14;;;;;;;43.00;16.73;;;;;3.00;103262.00;;;;5027715;28;20252;-71
2022/01/12 09:22:01;;;;;;;44.53;17.23;;;;;2.90;103274.00;;;;5023851;28;20224;-72
2022/01/12 09:24:49;;;;;;;45.03;15.93;;;;;3.00;103269.00;;;;5026618;28;20236;-72
2022/01/12 09:27:35;;;;;;;56.43;17.47;;;;;3.00;103277.00;;;;5028726;28;20281;-69
2022/01/12 09:30:24;;;;;;;45.90;16.97;;;;;2.90;103261.00;;;;5025707;28;20236;-71
2022/01/12 09:33:11;;;;;;;44.53;16.33;;;;;3.00;103265.00;;;;5021688;28;20230;-71
2022/01/12 09:35:58;;;;;;;45.10;16.70;;;;;3.00;103266.00;;;;5032176;28;20240;-73
2022/01/12 09:38:45;;;;;;;55.13;16.87;;;;;3.00;103262.00;;;;5028387;28;20313;-74
2022/01/12 09:41:31;;;;;;;57.10;18.23;;;;;3.10;103263.00;;;;5029224;28;20220;-69
2022/01/12 09:44:18;;;;;;;55.27;18.17;;;;;3.10;103271.00;;;;5027773;28;20232;-72
2022/01/12 09:47:06;;;;;;;51.93;17.67;;;;;3.20;103270.00;;;;5021332;28;20747;-71
2022/01/12 09:49:52;;;;;;;49.23;17.30;;;;;3.30;103270.00;;;;5019718;28;20271;-72
2022/01/12 09:52:40;;;;;;;55.20;17.13;;;;;3.20;103277.00;;;;5010443;28;20357;-73
2022/01/12 09:55:27;;;;;;;58.63;18.60;;;;;3.30;103278.00;;;;5009947;28;20230;-73
2022/01/12 09:58:14;;;;;;;54.17;17.97;;;;;3.30;103276.00;;;;5005395;28;20312;-73
2022/01/12 10:01:01;;;;;;;48.03;18.23;;;;;3.50;103267.00;;;;5010337;28;20225;-74
2022/01/12 10:03:50;;;;;;;57.73;18.40;;;;;3.50;103276.00;;;;5007800;28;20242;-68
2022/01/12 10:06:39;;;;;;;58.73;18.63;;;;;3.50;103290.00;;;;5006097;28;20235;-76
2022/01/12 10:09:33;;;;;;;52.03;18.63;;;;;3.50;103293.00;;;;5007616;28;20241;-71
2022/01/12 10:12:21;;;;;;;53.53;18.27;;;;;3.50;103309.00;;;;5007369;28;20898;-73
2022/01/12 10:15:11;;;;;;;49.03;17.53;;;;;3.40;103308.00;;;;5000761;28;20229;-71
2022/01/12 10:18:01;;;;;;;58.87;18.40;;;;;3.40;103315.00;;;;5017256;28;20242;-74
2022/01/12 10:20:48;;;;;;;54.17;18.37;;;;;3.40;103302.00;;;;4999457;28;20249;-71
2022/01/12 10:23:38;;;;;;;49.07;18.43;;;;;3.60;103307.00;;;;4996437;28;20244;-71
2022/01/12 10:26:34;;;;;;;58.03;18.03;;;;;3.60;103327.00;;;;5010998;28;20660;-71
2022/01/12 10:29:23;;;;;;;52.03;18.77;;;;;3.50;103303.00;;;;5003741;28;20266;-71
2022/01/12 10:32:10;;;;;;;53.53;19.17;;;;;3.60;103257.00;;;;5002913;28;20333;-72
2022/01/12 10:34:57;;;;;;;58.30;18.77;;;;;3.60;103317.00;;;;5003482;28;20263;-72
2022/01/12 10:37:44;;;;;;;55.83;19.70;;;;;3.60;103321.00;;;;4994307;28;20233;-72
2022/01/12 10:40:30;;;;;;;61.77;18.97;;;;;3.60;103317.00;;;;5003555;28;20235;-73
2022/01/12 10:43:29;;;;;;;55.57;19.53;;;;;3.50;103311.00;;;;5015429;28;20380;-72
2022/01/12 10:46:17;;;;;;;57.53;18.67;;;;;3.60;103309.00;;;;5018874;28;20225;-72
2022/01/12 10:49:04;;;;;;;56.83;17.93;;;;;3.50;103312.00;;;;5015361;28;20234;-71
2022/01/12 10:51:55;;;;;;;53.27;18.00;;;;;3.50;103253.00;;;;5018736;28;20229;-73
2022/01/12 10:54:50;;;;;;;54.23;18.00;;;;;3.60;103321.00;;;;5009366;28;20582;-71
2022/01/12 10:57:39;;;;;;;52.83;18.67;;;;;3.50;103319.00;;;;5015670;28;20358;-74
2022/01/12 11:00:29;;;;;;;51.00;18.50;;;;;3.60;103311.00;;;;5018883;28;20783;-71
2022/01/12 11:03:16;;;;;;;54.73;19.00;;;;;3.70;103310.00;;;;5018094;28;20249;-72
2022/01/12 11:06:03;;;;;;;54.80;18.30;;;;;3.70;103316.00;;;;5002323;28;20260;-71
2022/01/12 11:08:50;;;;;;;50.40;18.13;;;;;3.60;103321.00;;;;4991608;28;20901;-70
2022/01/12 11:11:36;;;;;;;50.63;18.10;;;;;3.70;103305.00;;;;4994868;28;20588;-72
2022/01/12 11:14:23;;;;;;;54.63;18.37;;;;;3.70;103307.00;;;;5002177;28;20273;-72
2022/01/12 11:17:11;;;;;;;49.40;18.70;;;;;3.70;103309.00;;;;4990326;28;20231;-71
2022/01/12 11:20:07;;;;;;;46.73;18.80;;;;;3.70;103275.00;;;;4991715;28;20249;-71
2022/01/12 11:23:02;;;;;;;52.10;18.33;;;;;3.70;103322.00;;;;4996017;28;20231;-72
2022/01/12 11:25:50;;;;;;;47.83;18.37;;;;;3.80;103313.00;;;;4997196;28;20360;-70
2022/01/12 11:28:39;;;;;;;48.13;18.07;;;;;3.70;103324.00;;;;4992322;28;20761;-68
2022/01/12 11:31:26;;;;;;;42.40;18.33;;;;;3.70;103317.00;;;;4990678;28;20230;-70
2022/01/12 11:34:19;;;;;;;43.97;16.70;;;;;3.70;103324.00;;;;4989044;28;20226;-71
2022/01/12 11:37:13;;;;;;;52.93;18.80;;;;;3.70;103329.00;;;;5012586;28;20371;-71
2022/01/12 11:40:07;;;;;;;50.93;19.87;;;;;3.70;103308.00;;;;5012538;28;20234;-71
2022/01/12 11:42:54;;;;;;;40.57;17.63;;;;;3.80;103314.00;;;;5008585;28;20233;-72
2022/01/12 11:45:40;;;;;;;47.33;18.57;;;;;3.70;103313.00;;;;5010481;28;20709;-71
2022/01/12 11:48:30;;;;;;;43.47;17.60;;;;;3.70;103324.00;;;;5018779;28;20296;-71
2022/01/12 11:51:20;;;;;;;45.57;15.97;;;;;3.80;103321.00;;;;5010687;28;20224;-74
2022/01/12 11:54:09;;;;;;;36.40;16.23;;;;;3.80;103315.00;;;;5023100;28;20314;-72
2022/01/12 11:56:57;;;;;;;34.67;15.93;;;;;3.80;103267.00;;;;5009491;28;20261;-71
2022/01/12 11:59:52;;;;;;;34.23;15.20;;;;;3.80;103303.00;;;;5007430;28;20355;-73
2022/01/12 12:02:39;;;;;;;32.83;14.93;;;;;3.80;103286.00;;;;5008181;28;20278;-73
2022/01/12 12:05:29;;;;;;;33.30;15.10;;;;;3.90;103299.00;;;;5012705;28;20232;-72
2022/01/12 12:08:25;;;;;;;30.10;14.20;;;;;3.90;103309.00;;;;5008746;28;20334;-72
2022/01/12 12:11:12;;;;;;;35.87;15.50;;;;;3.90;103259.00;;;;5011055;28;20372;-71
2022/01/12 12:14:04;;;;;;;31.80;14.50;;;;;3.80;103310.00;;;;5018225;28;20717;-67
2022/01/12 12:16:51;;;;;;;31.90;14.73;;;;;3.90;103312.00;;;;5017063;28;20283;-70
2022/01/12 12:19:38;;;;;;;32.60;14.87;;;;;3.90;103317.00;;;;5003225;28;20604;-70
2022/01/12 12:22:27;;;;;;;36.00;15.73;;;;;4.00;103327.00;;;;5020567;28;20233;-71
2022/01/12 12:25:17;;;;;;;43.90;18.20;;;;;3.90;103328.00;;;;5019340;28;20244;-73
2022/01/12 12:28:07;;;;;;;36.73;16.73;;;;;3.70;103328.00;;;;5017377;28;20296;-72
2022/01/12 12:30:54;;;;;;;39.73;17.60;;;;;3.80;103326.00;;;;5016703;28;20309;-73
2022/01/12 12:33:40;;;;;;;39.67;16.70;;;;;3.90;103306.00;;;;5017696;28;20275;-72
2022/01/12 12:36:26;;;;;;;40.57;17.40;;;;;3.90;103313.00;;;;5018343;28;20232;-72
2022/01/12 12:39:14;;;;;;;33.27;16.47;;;;;4.00;103308.00;;;;5011414;28;20241;-74
2022/01/12 12:42:04;;;;;;;36.17;15.73;;;;;4.10;103302.00;;;;5018355;28;20233;-72
2022/01/12 12:44:56;;;;;;;36.83;16.97;;;;;4.10;103306.00;;;;5014059;28;20254;-72
2022/01/12 12:47:45;;;;;;;40.10;16.70;;;;;4.20;103311.00;;;;5015253;28;20233;-72
2022/01/12 12:50:32;;;;;;;39.73;17.57;;;;;4.20;103308.00;;;;5014908;28;20229;-72
2022/01/12 12:53:18;;;;;;;43.40;18.10;;;;;4.10;103304.00;;;;5019470;28;20241;-71
2022/01/12 12:56:11;;;;;;;36.00;17.33;;;;;4.20;103304.00;;;;5014051;28;20354;-73
2022/01/12 12:58:59;;;;;;;37.87;16.67;;;;;4.20;103298.00;;;;5020650;28;20236;-74
2022/01/12 13:01:45;;;;;;;39.10;17.33;;;;;4.20;103297.00;;;;5016853;28;20234;-72
2022/01/12 13:04:32;;;;;;;37.27;17.43;;;;;4.20;103249.00;;;;5025835;28;20257;-73
2022/01/12 13:07:19;;;;;;;39.50;18.00;;;;;4.20;103263.00;;;;5029803;28;20228;-72
2022/01/12 13:10:08;;;;;;;39.60;17.43;;;;;4.10;103305.00;;;;5027746;28;20704;-73
2022/01/12 13:12:57;;;;;;;37.93;18.10;;;;;4.10;103302.00;;;;5025552;28;20297;-72
2022/01/12 13:15:46;;;;;;;37.40;17.50;;;;;4.00;103316.00;;;;5023349;28;20226;-72
2022/01/12 13:18:39;;;;;;;33.47;16.03;;;;;4.00;103313.00;;;;5030932;28;20228;-72
2022/01/12 13:21:26;;;;;;;32.13;15.77;;;;;4.00;103311.00;;;;5031158;28;20225;-72
2022/01/12 13:24:13;;;;;;;31.37;15.57;;;;;4.00;103324.00;;;;5027442;28;20229;-72
2022/01/12 13:26:59;;;;;;;35.30;15.70;;;;;4.20;103315.00;;;;5029993;28;20355;-73
2022/01/12 13:29:47;;;;;;;37.27;16.43;;;;;4.20;103303.00;;;;5024114;28;20716;-72
2022/01/12 13:32:37;;;;;;;38.30;17.03;;;;;4.20;103302.00;;;;5006764;28;20710;-74
2022/01/12 13:35:27;;;;;;;30.43;16.33;;;;;4.30;103307.00;;;;5006277;28;20306;-71
2022/01/12 13:38:14;;;;;;;32.30;16.33;;;;;4.10;103309.00;;;;5012512;28;20230;-72
2022/01/12 13:41:09;;;;;;;34.27;16.10;;;;;4.10;103265.00;;;;5008975;28;20788;-73
2022/01/12 13:43:58;;;;;;;34.43;15.67;;;;;4.10;103300.00;;;;5006886;28;20229;-72
2022/01/12 13:46:52;;;;;;;38.60;16.00;;;;;4.10;103310.00;;;;5003972;28;20282;-69
2022/01/12 13:49:39;;;;;;;30.77;13.03;;;;;4.10;103311.00;;;;5007278;28;20749;-73
2022/01/12 13:52:26;;;;;;;30.30;13.23;;;;;4.10;103301.00;;;;4999651;28;20834;-72
2022/01/12 13:55:13;;;;;;;26.50;12.37;;;;;4.10;103305.00;;;;5030666;28;20228;-71
2022/01/12 13:58:04;;;;;;;25.23;12.70;;;;;4.10;103317.00;;;;5025926;28;20635;-72
2022/01/12 14:00:59;;;;;;;21.13;9.77;;;;;4.10;103317.00;;;;5027045;28;20232;-72
2022/01/12 14:03:51;;;;;;;18.37;8.73;;;;;4.20;103329.00;;;;5023502;28;20221;-72
2022/01/12 14:06:41;;;;;;;17.83;8.67;;;;;4.20;103319.00;;;;5006698;28;20745;-73
2022/01/12 14:09:33;;;;;;;19.53;8.87;;;;;4.00;103318.00;;;;5002747;28;20281;-71
2022/01/12 14:12:20;;;;;;;20.53;9.80;;;;;4.20;103319.00;;;;5009698;28;20226;-69
2022/01/12 14:15:08;;;;;;;19.83;9.07;;;;;4.20;103317.00;;;;4992828;28;20764;-71
2022/01/12 14:17:54;;;;;;;18.30;9.20;;;;;3.90;103314.00;;;;5004409;28;20238;-71
2022/01/12 14:20:42;;;;;;;20.50;9.97;;;;;4.10;103293.00;;;;4998102;28;20234;-74
2022/01/12 14:23:39;;;;;;;18.20;9.50;;;;;4.10;103317.00;;;;5007408;28;20255;-71
2022/01/12 14:26:28;;;;;;;16.33;8.07;;;;;4.00;103314.00;;;;5001080;28;20230;-72
2022/01/12 14:29:14;;;;;;;19.13;9.37;;;;;4.00;103330.00;;;;5003649;28;20274;-72
2022/01/12 14:32:01;;;;;;;18.27;8.93;;;;;4.00;103322.00;;;;5006727;28;20350;-73
2022/01/12 14:34:47;;;;;;;19.53;8.73;;;;;4.10;103320.00;;;;5007103;28;20233;-71
2022/01/12 14:37:35;;;;;;;19.90;8.97;;;;;4.00;103315.00;;;;5007921;28;20234;-68
2022/01/12 14:40:23;;;;;;;16.33;9.17;;;;;3.90;103320.00;;;;5001508;28;20310;-72
2022/01/12 14:43:11;;;;;;;19.43;9.37;;;;;3.90;103322.00;;;;5009562;28;20304;-74
2022/01/12 14:45:59;;;;;;;19.20;9.97;;;;;3.70;103318.00;;;;5001126;28;21430;-71